createdAt,value
2019-05-19T00:03:05.552Z,98374.16
2019-05-19T00:09:10.286Z,98367.44
2019-05-19T00:15:15.064Z,98362.23
2019-05-19T00:21:19.620Z,98353.23
2019-05-19T00:27:24.188Z,98355.09
2019-05-19T00:33:28.726Z,98353.05
2019-05-19T00:39:33.335Z,98345.98
2019-05-19T00:45:37.951Z,98348.80
2019-05-19T00:51:42.685Z,98353.03
2019-05-19T00:57:48.281Z,98343.75
2019-05-19T01:03:53.017Z,98337.95
2019-05-19T01:09:57.613Z,98338.00
2019-05-19T01:16:02.421Z,98334.45
2019-05-19T01:22:07.935Z,98332.37
2019-05-19T01:28:14.370Z,98329.20
2019-05-19T01:34:19.005Z,98319.19
2019-05-19T01:40:23.758Z,98311.09
2019-05-19T01:46:28.286Z,98310.16
2019-05-19T01:52:32.873Z,98312.23
2019-05-19T01:58:37.530Z,98313.16
2019-05-19T02:04:42.072Z,98308.87
2019-05-19T02:10:46.625Z,98303.14
2019-05-19T02:16:51.219Z,98306.27
2019-05-19T02:22:55.883Z,98303.06
2019-05-19T02:29:00.442Z,98299.22
2019-05-19T02:35:06.706Z,98299.98
2019-05-19T02:41:12.686Z,98294.45
2019-05-19T02:47:21.218Z,98295.11
2019-05-19T02:53:26.115Z,98292.00
2019-05-19T02:59:32.573Z,98300.50
2019-05-19T03:05:38.521Z,98305.52
2019-05-19T03:11:43.110Z,98309.75
2019-05-19T03:17:47.664Z,98307.19
2019-05-19T03:23:52.234Z,98300.84
2019-05-19T03:29:58.493Z,98310.02
2019-05-19T03:36:03.112Z,98307.69
2019-05-19T03:42:10.344Z,98310.89
2019-05-19T03:48:14.177Z,98320.12
2019-05-19T03:54:18.866Z,98317.39
2019-05-19T04:00:23.775Z,98317.39
2019-05-19T04:06:28.375Z,98323.84
2019-05-19T04:12:32.986Z,98322.22
2019-05-19T04:18:37.722Z,98329.30
2019-05-19T04:24:45.572Z,98329.77
2019-05-19T04:30:50.162Z,98334.59
2019-05-19T04:36:54.747Z,98344.28
2019-05-19T04:42:59.295Z,98339.28
2019-05-19T04:49:04.034Z,98333.35
2019-05-19T04:55:09.119Z,98330.27
2019-05-19T05:01:13.656Z,98335.34
2019-05-19T05:07:18.365Z,98328.86
2019-05-19T05:13:22.995Z,98334.08
2019-05-19T05:19:27.601Z,98330.45
2019-05-19T05:25:32.318Z,98328.94
2019-05-19T05:31:36.896Z,98327.96
2019-05-19T05:37:41.483Z,98327.90
2019-05-19T05:43:46.169Z,98324.98
2019-05-19T05:49:50.830Z,98333.09
2019-05-19T05:55:55.431Z,98333.05
2019-05-19T06:01:59.989Z,98332.97
2019-05-19T06:08:04.654Z,98326.08
2019-05-19T06:14:09.259Z,98328.32
2019-05-19T06:20:13.913Z,98329.59
2019-05-19T06:26:18.452Z,98328.98
2019-05-19T06:32:24.749Z,98326.64
2019-05-19T06:38:29.398Z,98326.48
2019-05-19T06:44:33.960Z,98319.45
2019-05-19T06:50:40.738Z,98308.15
2019-05-19T06:56:44.941Z,98310.58
2019-05-19T07:02:49.565Z,98304.23
2019-05-19T07:08:54.236Z,98303.01
2019-05-19T07:14:58.855Z,98301.68
2019-05-19T07:21:03.436Z,98302.80
2019-05-19T07:27:10.982Z,98293.58
2019-05-19T07:33:15.552Z,98288.10
2019-05-19T07:39:20.128Z,98287.40
2019-05-19T07:45:24.819Z,98273.66
2019-05-19T07:51:29.441Z,98284.19
2019-05-19T07:57:34.088Z,98283.21
2019-05-19T08:03:38.684Z,98288.80
2019-05-19T08:09:43.263Z,98278.80
2019-05-19T08:15:47.932Z,98268.97
2019-05-19T08:21:53.218Z,98265.22
2019-05-19T08:28:07.487Z,98269.42
2019-05-19T08:34:04.346Z,98263.95
2019-05-19T08:40:09.386Z,98262.13
2019-05-19T08:46:14.107Z,98258.00
2019-05-19T08:52:18.736Z,98263.36
2019-05-19T08:58:23.331Z,98256.73
2019-05-19T09:04:28.017Z,98248.59
2019-05-19T09:10:32.577Z,98243.62
2019-05-19T09:16:37.168Z,98233.42
2019-05-19T09:22:41.859Z,98231.14
2019-05-19T09:28:46.686Z,98223.94
2019-05-19T09:34:51.340Z,98225.03
2019-05-19T09:40:56.742Z,98212.70
2019-05-19T09:47:01.389Z,98218.06
2019-05-19T09:53:06.107Z,98209.70
2019-05-19T09:59:10.682Z,98203.98
2019-05-19T10:05:15.359Z,98207.69
2019-05-19T10:11:27.939Z,98209.64
2019-05-19T10:17:34.122Z,98199.91
2019-05-19T10:23:38.688Z,98202.12
2019-05-19T10:29:43.376Z,98204.64
2019-05-19T10:35:47.951Z,98189.55
2019-05-19T10:41:52.570Z,98183.77
2019-05-19T10:47:57.142Z,98188.69
2019-05-19T10:54:01.801Z,98185.97
2019-05-19T11:00:08.396Z,98189.89
2019-05-19T11:06:13.244Z,98187.34
2019-05-19T11:12:17.799Z,98176.29
2019-05-19T11:18:22.437Z,98176.56
2019-05-19T11:24:27.062Z,98179.86
2019-05-19T11:30:31.719Z,98179.78
2019-05-19T11:36:36.358Z,98176.83
2019-05-19T11:42:40.983Z,98168.53
2019-05-19T11:48:45.551Z,98168.83
2019-05-19T11:54:50.115Z,98170.72
2019-05-19T12:00:54.849Z,98168.34
2019-05-19T12:06:59.550Z,98166.66
2019-05-19T12:13:04.108Z,98169.05
2019-05-19T12:19:08.765Z,98161.98
2019-05-19T12:25:13.409Z,98164.30
2019-05-19T12:31:18.240Z,98163.39
2019-05-19T12:37:22.895Z,98158.52
2019-05-19T12:43:27.625Z,98158.20
2019-05-19T12:49:32.266Z,98153.00
2019-05-19T12:55:36.811Z,98159.20
2019-05-19T13:01:41.649Z,98153.36
2019-05-19T13:07:46.718Z,98146.22
2019-05-19T13:13:51.401Z,98145.84
2019-05-19T13:19:56.138Z,98132.77
2019-05-19T13:26:00.850Z,98134.40
2019-05-19T13:32:05.482Z,98136.40
2019-05-19T13:38:10.082Z,98129.01
2019-05-19T13:44:14.699Z,98127.80
2019-05-19T13:50:19.521Z,98118.52
2019-05-19T13:56:24.177Z,98108.48
2019-05-19T14:02:28.716Z,98110.56
2019-05-19T14:08:33.336Z,98111.13
2019-05-19T14:14:38.023Z,98117.07
2019-05-19T14:20:45.615Z,98116.92
2019-05-19T14:26:50.176Z,98111.01
2019-05-19T14:32:57.532Z,98122.14
2019-05-19T14:39:05.360Z,98123.91
2019-05-19T14:45:09.294Z,98124.99
2019-05-19T14:51:13.853Z,98119.82
2019-05-19T14:57:18.433Z,98130.86
2019-05-19T15:03:23.226Z,98135.03
2019-05-19T15:09:28.055Z,98135.92
2019-05-19T15:15:32.739Z,98125.11
2019-05-19T15:21:37.344Z,98116.95
2019-05-19T15:27:41.917Z,98103.80
2019-05-19T15:33:46.485Z,98109.42
2019-05-19T15:39:51.279Z,98112.41
2019-05-19T15:45:55.862Z,98120.65
2019-05-19T15:52:04.206Z,98124.00
2019-05-19T15:58:16.027Z,98128.67
2019-05-19T16:04:13.267Z,98113.23
2019-05-19T16:10:19.223Z,98095.49
2019-05-19T16:16:25.502Z,98084.81
2019-05-19T16:22:30.065Z,98086.05
2019-05-19T16:28:34.602Z,98080.58
2019-05-19T16:34:39.228Z,98081.97
2019-05-19T16:40:45.471Z,98076.67
2019-05-19T16:46:50.140Z,98083.46
2019-05-19T16:52:54.792Z,98086.23
2019-05-19T16:58:59.484Z,98080.18
2019-05-19T17:05:05.784Z,98078.77
2019-05-19T17:11:18.006Z,98081.94
2019-05-19T17:17:16.962Z,98076.23
2019-05-19T17:23:21.587Z,98077.30
2019-05-19T17:29:26.297Z,98076.34
2019-05-19T17:35:30.950Z,98086.59
2019-05-19T17:41:35.624Z,98085.57
2019-05-19T17:47:40.271Z,98094.41
2019-05-19T17:53:45.000Z,98091.34
2019-05-19T17:59:50.940Z,98096.44
2019-05-19T18:05:55.579Z,98100.87
2019-05-19T18:12:00.217Z,98116.41
2019-05-19T18:18:05.104Z,98111.00
2019-05-19T18:24:09.785Z,98111.87
2019-05-19T18:30:15.170Z,98109.16
2019-05-19T18:36:19.801Z,98108.55
2019-05-19T18:42:24.422Z,98102.42
2019-05-19T18:48:29.079Z,98104.88
2019-05-19T18:54:33.627Z,98103.97
2019-05-19T19:00:39.527Z,98106.81
2019-05-19T19:06:44.459Z,98114.72
2019-05-19T19:12:49.427Z,98118.59
2019-05-19T19:18:54.159Z,98110.83
2019-05-19T19:24:58.834Z,98125.22
2019-05-19T19:31:03.646Z,98120.34
2019-05-19T19:37:08.348Z,98127.66
2019-05-19T19:43:12.973Z,98135.45
2019-05-19T19:49:17.627Z,98141.92
2019-05-19T19:55:22.243Z,98146.53
2019-05-19T20:01:26.880Z,98145.17
2019-05-19T20:07:31.521Z,98150.53
2019-05-19T20:13:36.118Z,98146.67
2019-05-19T20:19:41.799Z,98155.75
2019-05-19T20:25:46.506Z,98163.57
2019-05-19T20:31:51.167Z,98167.48
2019-05-19T20:37:55.800Z,98172.32
2019-05-19T20:44:00.389Z,98173.13
2019-05-19T20:50:07.548Z,98166.00
2019-05-19T20:56:12.152Z,98167.84
2019-05-19T21:02:16.861Z,98162.93
2019-05-19T21:08:21.529Z,98162.33
2019-05-19T21:14:26.192Z,98159.61
2019-05-19T21:20:30.741Z,98163.69
2019-05-19T21:26:35.501Z,98160.94
2019-05-19T21:32:40.096Z,98152.70
2019-05-19T21:38:44.737Z,98148.27
2019-05-19T21:44:49.300Z,98150.18
2019-05-19T21:50:57.068Z,98157.00
2019-05-19T21:57:01.634Z,98156.31
2019-05-19T22:03:06.403Z,98159.80
2019-05-19T22:09:11.118Z,98154.34
2019-05-19T22:15:15.749Z,98161.41
2019-05-19T22:21:20.326Z,98166.17
2019-05-19T22:27:24.876Z,98167.78
2019-05-19T22:33:29.516Z,98173.14
2019-05-19T22:39:34.144Z,98164.87
2019-05-19T22:45:38.710Z,98160.28
2019-05-19T22:51:43.463Z,98163.33
2019-05-19T22:57:48.019Z,98159.44
2019-05-19T23:03:52.614Z,98148.27
2019-05-19T23:09:57.180Z,98147.55
2019-05-19T23:16:01.752Z,98155.87
2019-05-19T23:22:06.402Z,98151.73
2019-05-19T23:28:10.957Z,98149.23
2019-05-19T23:34:15.516Z,98148.10
2019-05-19T23:40:20.228Z,98135.55
2019-05-19T23:46:24.907Z,98126.97
2019-05-19T23:52:29.492Z,98130.64
2019-05-19T23:58:34.049Z,98140.47
